createdAt,value
2023-05-11T00:00:44.940Z,101538.13
2023-05-11T00:11:09.497Z,101543.81
2023-05-11T00:21:30.866Z,101544.91
2023-05-11T00:31:52.292Z,101551.09
2023-05-11T00:42:13.784Z,101547.78
2023-05-11T00:52:35.295Z,101546.28
2023-05-11T01:02:57.211Z,101548.25
2023-05-11T01:13:33.622Z,101551.19
2023-05-11T01:23:58.037Z,101561.75
2023-05-11T01:34:21.464Z,101566.94
2023-05-11T01:44:44.556Z,101582.59
2023-05-11T01:55:07.044Z,101585.28
2023-05-11T02:05:30.015Z,101582.97
2023-05-11T02:15:53.101Z,101598.81
2023-05-11T02:26:16.682Z,101596.63
2023-05-11T02:36:38.812Z,101608.81
2023-05-11T02:47:02.465Z,101618.63
2023-05-11T02:57:24.178Z,101611.81
2023-05-11T03:07:45.833Z,101616.38
2023-05-11T03:18:07.642Z,101616.38
2023-05-11T03:28:29.759Z,101613.78
2023-05-11T03:38:53.417Z,101615.69
2023-05-11T03:49:15.678Z,101611.56
2023-05-11T03:59:39.184Z,101622.75
2023-05-11T04:10:00.630Z,101618.56
2023-05-11T04:20:22.002Z,101620.56
2023-05-11T04:30:43.347Z,101619.94
2023-05-11T04:41:05.501Z,101624.34
2023-05-11T04:51:26.894Z,101619.38
2023-05-11T05:01:48.279Z,101625.56
2023-05-11T05:12:09.631Z,101634.78
2023-05-11T05:22:31.680Z,101640.13
2023-05-11T05:32:53.199Z,101649.47
2023-05-11T05:43:14.628Z,101668.47
2023-05-11T05:53:36.240Z,101672.88
2023-05-11T06:03:58.091Z,101689.22
2023-05-11T06:14:20.139Z,101698.63
2023-05-11T06:24:41.977Z,101691.53
2023-05-11T06:35:03.424Z,101687.84
2023-05-11T06:45:24.917Z,101685.03
2023-05-11T06:55:46.461Z,101691.31
2023-05-11T07:06:07.951Z,101693.81
2023-05-11T07:16:29.437Z,101689.16
2023-05-11T07:26:51.892Z,101701.00
2023-05-11T07:37:13.265Z,101708.59
2023-05-11T07:47:36.766Z,101710.94
2023-05-11T07:57:58.424Z,101704.59
2023-05-11T08:08:19.857Z,101713.00
2023-05-11T08:18:41.277Z,101715.34
2023-05-11T08:29:04.340Z,101729.84
2023-05-11T08:39:43.809Z,101727.03
2023-05-11T08:50:07.599Z,101732.75
2023-05-11T09:00:29.793Z,101732.19
2023-05-11T09:10:51.955Z,101733.09
2023-05-11T09:21:13.453Z,101728.22
2023-05-11T09:31:40.954Z,101730.81
2023-05-11T09:42:14.569Z,101726.91
2023-05-11T09:52:43.624Z,101724.63
2023-05-11T10:03:06.814Z,101722.72
2023-05-11T10:13:29.469Z,101715.28
2023-05-11T10:23:51.037Z,101718.84
2023-05-11T10:34:12.819Z,101710.28
2023-05-11T10:44:44.320Z,101706.31
2023-05-11T10:55:25.503Z,101713.81
2023-05-11T11:05:48.157Z,101720.63
2023-05-11T11:16:09.810Z,101722.13
2023-05-11T11:26:47.949Z,101714.03
2023-05-11T11:37:09.434Z,101720.47
2023-05-11T11:47:30.906Z,101709.22
2023-05-11T11:57:52.284Z,101713.31
2023-05-11T12:08:15.612Z,101720.13
2023-05-11T12:18:36.994Z,101720.19
2023-05-11T12:29:09.098Z,101717.63
2023-05-11T12:39:31.216Z,101712.03
2023-05-11T12:49:52.798Z,101717.97
2023-05-11T13:00:14.671Z,101707.66
2023-05-11T13:10:36.115Z,101701.19
2023-05-11T13:21:07.616Z,101695.41
2023-05-11T13:31:29.208Z,101684.53
2023-05-11T13:41:51.981Z,101674.06
2023-05-11T13:52:15.125Z,101674.09
2023-05-11T14:02:36.604Z,101675.53
2023-05-11T14:12:58.040Z,101667.84
2023-05-11T14:23:19.385Z,101675.91
2023-05-11T14:33:40.860Z,101667.53
2023-05-11T14:44:02.265Z,101669.59
2023-05-11T14:54:23.646Z,101651.50
2023-05-11T15:04:45.000Z,101660.53
2023-05-11T15:15:06.674Z,101656.41
2023-05-11T15:25:28.040Z,101659.72
2023-05-11T15:35:50.449Z,101680.97
2023-05-11T15:46:11.932Z,101680.66
2023-05-11T15:56:33.498Z,101679.50
2023-05-11T16:06:56.713Z,101694.53
2023-05-11T16:17:19.524Z,101696.34
2023-05-11T16:27:40.946Z,101707.34
2023-05-11T16:38:02.599Z,101711.03
2023-05-11T16:48:26.740Z,101722.59
2023-05-11T16:58:48.289Z,101713.16
2023-05-11T17:09:09.694Z,101697.75
2023-05-11T17:19:31.661Z,101675.44
2023-05-11T17:29:53.070Z,101695.06
2023-05-11T17:40:15.832Z,101687.66
2023-05-11T17:50:37.333Z,101689.72
2023-05-11T18:00:58.713Z,101691.91
2023-05-11T18:11:20.092Z,101714.78
2023-05-11T18:21:41.568Z,101701.91
2023-05-11T18:32:03.134Z,101706.34
2023-05-11T18:42:24.627Z,101737.59
2023-05-11T18:52:46.010Z,101727.25
2023-05-11T19:03:07.729Z,101715.25
2023-05-11T19:13:29.160Z,101718.78
2023-05-11T19:23:50.645Z,101731.75
2023-05-11T19:34:12.048Z,101749.16
2023-05-11T19:44:34.628Z,101751.66
2023-05-11T19:54:55.992Z,101765.53
2023-05-11T20:05:17.416Z,101778.53
2023-05-11T20:15:38.970Z,101788.84
2023-05-11T20:26:00.894Z,101785.44
2023-05-11T20:36:22.241Z,101787.22
2023-05-11T20:46:43.803Z,101778.66
2023-05-11T20:57:05.498Z,101763.91
2023-05-11T21:07:28.282Z,101752.78
2023-05-11T21:17:49.806Z,101762.25
2023-05-11T21:28:11.228Z,101756.16
2023-05-11T21:38:32.599Z,101753.69
2023-05-11T21:48:53.935Z,101752.72
2023-05-11T21:59:17.017Z,101745.63
2023-05-11T22:09:38.500Z,101744.75
2023-05-11T22:19:59.846Z,101750.66
2023-05-11T22:30:21.515Z,101740.25
2023-05-11T22:40:43.040Z,101745.28
2023-05-11T22:51:06.213Z,101747.94
2023-05-11T23:01:28.443Z,101746.16
2023-05-11T23:11:49.796Z,101766.03
2023-05-11T23:22:11.242Z,101766.91
2023-05-11T23:32:32.830Z,101755.63
2023-05-11T23:42:54.598Z,101766.13
2023-05-11T23:53:15.958Z,101763.50
